• Join FlightAware (Why Join?)
  • Login
  • US Flag 
07:47PM EDT


 

Airport Tracker/Info


-or-


 

Live Flight TrackerFlight Track Log ✈ SAS903 ✈ 15-Jul-2013 ✈ ESSA / ARN - KEWR

Flight Track Log - Related Links

Times and Time Zones

All times are in EDT time to prevent confusion due to time zone crossing. See the SAS903 flight status page for this flight to view local times or setup timezone preferences in your user account.

Time Position Orientation Groundspeed Altitude Reporting Facility
EDT Latitude Longitude Course Direction KTS MPH feet Rate Location/Type
04:45AM 59.6240 17.9080 190° South 160 184 1,400  Level FlightAware
04:45AM 59.6140 17.9040 191° South 152 175 1,800 1,200 Climbing FlightAware
04:46AM 59.6050 17.8900 218° Southwest 156 180 2,000 1,080 Climbing FlightAware
04:46AM 59.5950 17.8540 241° Southwest 164 189 2,600 1,500 Climbing FlightAware
04:46AM 59.5900 17.8380 238° Southwest 164 189 3,000 1,200 Climbing FlightAware
04:47AM 59.5810 17.7990 246° West 182 209 3,400 840 Climbing FlightAware
04:47AM 59.5700 17.7530 245° Southwest 208 239 3,800 1,320 Climbing FlightAware
04:48AM 59.5680 17.7310 260° West 202 232 4,300 1,740 Climbing FlightAware
04:48AM 59.5690 17.6730 272° West 211 243 5,100 1,200 Climbing FlightAware
04:49AM 59.5790 17.6150 289° West 249 287 5,600 1,200 Climbing FlightAware
04:49AM 59.5890 17.6050 333° Northwest 263 303 5,900 2,040 Climbing FlightAware
04:49AM 59.6240 17.6140 North 283 326 6,900 2,220 Climbing FlightAware
04:50AM 59.6790 17.5960 351° North 279 321 8,600 2,100 Climbing FlightAware
04:50AM 59.7140 17.5680 338° Northwest 290 334 9,500 1,860 Climbing FlightAware
04:51AM 59.7590 17.5370 341° North 299 344 10,600 1,320 Climbing FlightAware
04:52AM 59.8140 17.4950 339° North 333 383 11,200 1,200 Climbing FlightAware
04:52AM 59.8710 17.4140 325° Northwest 353 406 12,300 1,620 Climbing FlightAware
04:53AM 59.9260 17.3360 325° Northwest 363 418 13,500 1,860 Climbing FlightAware
04:54AM 59.9790 17.2590 324° Northwest 368 423 14,800 1,920 Climbing FlightAware
04:55AM 60.0440 17.1660 324° Northwest 375 432 16,300 1,800 Climbing FlightAware
04:55AM 60.1000 17.0830 324° Northwest 381 438 17,400 1,620 Climbing FlightAware
04:56AM 60.1550 17.0030 324° Northwest 385 443 18,500 1,620 Climbing FlightAware
04:57AM 60.2150 16.9160 324° Northwest 392 451 19,600 1,620 Climbing FlightAware
04:57AM 60.2740 16.8290 324° Northwest 396 456 20,700 1,380 Climbing FlightAware
04:58AM 60.3340 16.7400 324° Northwest 404 465 21,500 1,500 Climbing FlightAware
04:58AM 60.3890 16.6600 324° Northwest 396 456 22,700 2,160 Climbing FlightAware
04:59AM 60.4460 16.5740 323° Northwest 383 441 24,300 1,800 Climbing FlightAware
05:00AM 60.5380 16.4360 324° Northwest 377 434 26,000 1,380 Climbing FlightAware
05:01AM 60.5940 16.3510 323° Northwest 381 438 26,800 1,020 Climbing FlightAware
05:02AM 60.6570 16.2560 324° Northwest 386 444 27,500 900 Climbing FlightAware
05:02AM 60.7090 16.1770 323° Northwest 393 452 28,000 600 Climbing FlightAware
05:03AM 60.7710 16.0830 324° Northwest 405 466 28,300 360 Climbing FlightAware
05:04AM 60.8370 15.9800 323° Northwest 416 479 28,600 420 Climbing FlightAware
05:04AM 60.8880 15.9020 323° Northwest 424 488 28,900 540 Climbing FlightAware
05:05AM 60.9490 15.8070 323° Northwest 429 494 29,300 540 Climbing FlightAware
05:06AM 61.0200 15.6960 323° Northwest 436 502 29,700 600 Climbing FlightAware
05:06AM 61.0940 15.5800 323° Northwest 440 506 30,200 780 Climbing FlightAware
05:07AM 61.1590 15.4790 323° Northwest 437 503 30,800 960 Climbing FlightAware
05:08AM 61.2210 15.3790 322° Northwest 433 498 31,500 1,020 Climbing FlightAware
05:08AM 61.2880 15.2740 323° Northwest 427 491 32,200 900 Climbing FlightAware
05:09AM 61.3570 15.1630 322° Northwest 427 491 32,800 780 Climbing FlightAware
05:10AM 61.4200 15.0620 323° Northwest 428 493 33,300 540 Climbing FlightAware
05:11AM 61.4880 14.9510 322° Northwest 433 498 33,600 480 Climbing FlightAware
05:11AM 61.5550 14.8420 322° Northwest 438 504 34,000 240 Climbing FlightAware
05:12AM 61.6190 14.7370 322° Northwest 438 504 34,000  Level FlightAware
05:13AM 61.6890 14.6220 322° Northwest 437 503 34,000  Level FlightAware
05:13AM 61.7540 14.5140 322° Northwest 436 502 34,000  Level FlightAware
05:14AM 61.8230 14.3990 322° Northwest 438 504 34,000  Level FlightAware
05:15AM 61.8840 14.2970 322° Northwest 438 504 34,000  Level FlightAware
05:15AM 61.9530 14.1800 321° Northwest 436 502 34,000  Level FlightAware
05:16AM 62.0220 14.0640 322° Northwest 434 499 34,000  Level FlightAware
05:17AM 62.0850 13.9550 321° Northwest 429 494 34,000  Level FlightAware
05:17AM 62.1450 13.8520 321° Northwest 429 494 34,000  Level FlightAware
05:18AM 62.2140 13.7350 322° Northwest 428 493 34,000  Level FlightAware
05:19AM 62.2810 13.6180 321° Northwest 426 490 34,000  Level FlightAware
05:20AM 62.3420 13.5110 321° Northwest 425 489 34,000  Level FlightAware
05:20AM 62.4090 13.3930 321° Northwest 427 491 34,000  Level FlightAware
05:21AM 62.4710 13.2850 321° Northwest 429 494 34,000  Level FlightAware
05:22AM 62.5350 13.1710 321° Northwest 431 496 34,000  Level FlightAware
05:22AM 62.5990 13.0560 320° Northwest 430 495 34,000  Level FlightAware
05:23AM 62.6660 12.9360 321° Northwest 431 496 34,000  Level FlightAware
05:24AM 62.7270 12.8270 321° Northwest 429 494 34,000  Level FlightAware
05:25AM 62.7940 12.7040 320° Northwest 430 495 34,000  Level FlightAware
05:25AM 62.8550 12.5940 321° Northwest 427 491 34,000  Level FlightAware
05:26AM 62.9220 12.4700 320° Northwest 425 489 34,000  Level FlightAware
05:27AM 62.9840 12.3550 320° Northwest 437 503 34,000  Level FlightAware
05:27AM 63.0470 12.2380 320° Northwest 443 510 34,000  Level FlightAware
05:28AM 63.1160 12.1090 320° Northwest 445 512 34,000  Level FlightAware
05:29AM 63.1790 11.9910 320° Northwest 445 512 34,000  Level FlightAware
05:29AM 63.2480 11.8610 320° Northwest 446 513 34,000  Level FlightAware
05:31AM 63.3300 11.7030 319° Northwest 451 519 34,000  Level FlightAware
05:31AM 63.4200 11.5310 319° Northwest 449 517 34,000  Level FlightAware
05:32AM 63.4900 11.3950 319° Northwest 452 520 34,000  Level FlightAware
05:33AM 63.5530 11.2730 319° Northwest 449 517 34,000 180 Level FlightAware
05:33AM 63.6150 11.1500 319° Northwest 436 502 34,300 840 Climbing FlightAware
05:34AM 63.6830 11.0170 319° Northwest 429 494 35,200 960 Climbing FlightAware
05:35AM 63.7490 10.8840 318° Northwest 432 497 35,800 420 Climbing FlightAware
05:36AM 63.8090 10.7640 319° Northwest 437 503 35,800  Level FlightAware
05:36AM 63.8790 10.6250 319° Northwest 453 521 35,800 120 Level FlightAware
05:37AM 63.9400 10.5000 318° Northwest 456 525 36,000 120 Climbing FlightAware
05:38AM 64.0110 10.3570 319° Northwest 456 525 36,000  Level FlightAware
05:38AM 64.0730 10.2280 318° Northwest 451 519 36,000  Level FlightAware
05:39AM 64.1410 10.0870 318° Northwest 443 510 36,000  Level FlightAware
05:40AM 64.2020 9.9600 318° Northwest 444 511 36,000  Level FlightAware
05:40AM 64.2670 9.8250 318° Northwest 450 518 36,000  Level FlightAware
05:41AM 64.3200 9.7120 317° Northwest 450 518 36,000  Level FlightAware
05:42AM 64.3860 9.5730 318° Northwest 452 520 36,000  Level FlightAware
05:42AM 64.4500 9.4370 318° Northwest 452 520 36,000  Level FlightAware
05:43AM 64.5050 9.3180 317° Northwest 454 522 36,000  Level FlightAware
05:44AM 64.5660 9.1870 317° Northwest 454 522 36,000  Level FlightAware
05:44AM 64.6340 9.0380 317° Northwest 454 522 36,000  Level FlightAware
05:45AM 64.6950 8.9040 317° Northwest 454 522 36,000  Level FlightAware
05:46AM 64.7560 8.7700 317° Northwest 454 522 36,000  Level FlightAware
05:46AM 64.8220 8.6250 317° Northwest 454 522 36,000  Level FlightAware
05:47AM 64.8800 8.4950 316° Northwest 454 522 36,000  Level FlightAware
05:48AM 64.9430 8.3530 316° Northwest 454 522 36,000  Level FlightAware
05:49AM 65.0110 8.1990 316° Northwest 454 522 36,000  Level FlightAware
05:49AM 65.0890 8.0220 316° Northwest 452 520 36,000  Level FlightAware
05:50AM 65.1430 7.8960 316° Northwest 451 519 36,000  Level FlightAware
05:51AM 65.2020 7.7590 316° Northwest 453 521 36,000  Level FlightAware
05:51AM 65.2620 7.6200 316° Northwest 453 521 36,000  Level FlightAware
05:52AM 65.3380 7.4410 316° Northwest 454 522 36,000  Level FlightAware
05:53AM 65.3980 7.2950 315° West 454 522 36,000  Level FlightAware
05:54AM 65.4440 7.1860 315° West 454 522 36,000  Level FlightAware
05:55AM 65.5060 7.0370 315° West 454 522 36,000  Level FlightAware
05:55AM 65.5510 6.9270 315° West 454 522 36,000  Level FlightAware
05:56AM 65.6120 6.7800 315° West 454 522 36,000  Level FlightAware
05:57AM 65.6580 6.6670 315° West 454 522 36,000  Level FlightAware
05:57AM 65.7190 6.5200 315° West 454 522 36,000  Level FlightAware
05:58AM 65.7640 6.4090 315° West 454 522 36,000  Level FlightAware
05:59AM 65.8260 6.2580 315° West 454 522 36,000  Level FlightAware
05:59AM 65.8720 6.1470 315° West 454 522 36,000  Level FlightAware
06:00AM 65.9320 5.9990 315° West 454 522 36,000  Level FlightAware
06:01AM 65.9780 5.8870 315° West 454 522 36,000  Level FlightAware
06:02AM 66.0380 5.7380 315° West 454 522 36,000  Level FlightAware
06:04AM 66.0808 5.1748 281° West  Level Estimated
06:05AM 66.1020 4.8852 280° West  Level Estimated
06:06AM 66.1226 4.5952 280° West  Level Estimated
06:07AM 66.1427 4.3047 280° West  Level Estimated
06:08AM 66.1622 4.0137 280° West  Level Estimated
06:09AM 66.1812 3.7223 279° West  Level Estimated
06:10AM 66.1997 3.4305 279° West  Level Estimated
06:11AM 66.2176 3.1382 279° West  Level Estimated
06:12AM 66.2349 2.8456 278° West  Level Estimated
06:13AM 66.2517 2.5525 278° West  Level Estimated
06:14AM 66.2679 2.2591 278° West  Level Estimated
06:15AM 66.2836 1.9653 278° West  Level Estimated
06:16AM 66.2987 1.6711 277° West  Level Estimated
06:17AM 66.3133 1.3766 277° West  Level Estimated
06:18AM 66.3273 1.0817 277° West  Level Estimated
06:19AM 66.3407 0.7865 277° West  Level Estimated
06:20AM 66.3536 0.4911 276° West  Level Estimated
06:21AM 66.3660 0.1953 276° West  Level Estimated
06:22AM 66.3777 -0.1008 276° West  Level Estimated
06:23AM 66.3889 -0.3971 276° West  Level Estimated
06:24AM 66.3996 -0.6937 275° West  Level Estimated
06:25AM 66.4097 -0.9906 275° West  Level Estimated
06:26AM 66.4192 -1.2877 275° West  Level Estimated
06:27AM 66.4281 -1.5850 274° West  Level Estimated
06:28AM 66.4365 -1.8825 274° West  Level Estimated
06:29AM 66.4443 -2.1802 274° West  Level Estimated
06:30AM 66.4516 -2.4780 274° West  Level Estimated
06:31AM 66.4583 -2.7761 273° West  Level Estimated
06:32AM 66.4644 -3.0742 273° West  Level Estimated
06:33AM 66.4699 -3.3726 273° West  Level Estimated
06:34AM 66.4749 -3.6710 273° West  Level Estimated
06:35AM 66.4793 -3.9696 272° West  Level Estimated
06:36AM 66.4832 -4.2683 272° West  Level Estimated
06:37AM 66.4864 -4.5670 272° West  Level Estimated
06:38AM 66.4891 -4.8659 271° West  Level Estimated
06:39AM 66.4913 -5.1648 271° West  Level Estimated
06:40AM 66.4928 -5.4637 271° West  Level Estimated
06:41AM 66.4938 -5.7626 271° West  Level Estimated
06:42AM 66.4942 -6.0616 270° West  Level Estimated
06:43AM 66.4941 -6.3606 270° West  Level Estimated
06:44AM 66.4934 -6.6596 270° West  Level Estimated
06:45AM 66.4921 -6.9585 270° West  Level Estimated
06:46AM 66.4902 -7.2574 269° West  Level Estimated
06:47AM 66.4878 -7.5563 269° West  Level Estimated
06:48AM 66.4848 -7.8551 269° West  Level Estimated
06:49AM 66.4812 -8.1538 268° West  Level Estimated
06:50AM 66.4771 -8.4524 268° West  Level Estimated
06:51AM 66.4724 -8.7509 268° West  Level Estimated
06:52AM 66.4671 -9.0493 268° West  Level Estimated
06:53AM 66.4612 -9.3476 267° West  Level Estimated
06:54AM 66.4548 -9.6457 267° West  Level Estimated
06:55AM 66.4478 -9.9436 267° West  Level Estimated
06:56AM 66.4403 -10.2414 267° West  Level Estimated
06:57AM 66.4322 -10.5390 266° West  Level Estimated
06:58AM 66.4235 -10.8364 266° West  Level Estimated
06:59AM 66.4142 -11.1336 266° West  Level Estimated
07:00AM 66.4044 -11.4305 265° West  Level Estimated
07:01AM 66.3940 -11.7272 265° West  Level Estimated
07:02AM 66.3831 -12.0237 265° West  Level Estimated
07:03AM 66.3716 -12.3199 265° West  Level Estimated
07:04AM 66.3595 -12.6158 264° West  Level Estimated
07:05AM 66.3469 -12.9114 264° West  Level Estimated
07:06AM 66.3337 -13.2067 264° West  Level Estimated
07:07AM 66.3199 -13.5018 264° West  Level Estimated
07:08AM 66.3056 -13.7964 263° West  Level Estimated
07:09AM 66.2907 -14.0908 263° West  Level Estimated
07:10AM 66.2753 -14.3848 263° West  Level Estimated
07:11AM 66.2594 -14.6784 262° West  Level Estimated
07:12AM 66.2428 -14.9716 262° West  Level Estimated
07:13AM 66.2258 -15.2645 262° West  Level Estimated
07:14AM 66.2081 -15.5569 262° West  Level Estimated
07:15AM 66.1899 -15.8489 261° West  Level Estimated
07:16AM 66.1712 -16.1405 261° West  Level Estimated
07:17AM 66.1519 -16.4317 261° West  Level Estimated
07:18AM 66.1321 -16.7224 261° West  Level Estimated
07:19AM 66.1117 -17.0127 260° West  Level Estimated
07:20AM 66.0908 -17.3025 260° West  Level Estimated
07:21AM 66.0694 -17.5917 260° West  Level Estimated
07:22AM 66.0474 -17.8806 260° West  Level Estimated
07:23AM 66.0248 -18.1689 259° West  Level Estimated
07:24AM 66.0017 -18.4566 259° West  Level Estimated
07:25AM 65.9781 -18.7439 259° West  Level Estimated
07:26AM 65.9540 -19.0306 258° West  Level Estimated
07:27AM 65.9293 -19.3168 258° West  Level Estimated
07:28AM 65.9041 -19.6024 258° West  Level Estimated
07:29AM 65.8784 -19.8875 258° West  Level Estimated
07:30AM 65.8521 -20.1719 257° West  Level Estimated
07:31AM 65.8253 -20.4558 257° West  Level Estimated
07:32AM 65.7980 -20.7391 257° West  Level Estimated
07:33AM 65.7701 -21.0218 257° West  Level Estimated
07:34AM 65.7418 -21.3039 256° West  Level Estimated
07:35AM 65.7129 -21.5853 256° West  Level Estimated
07:36AM 65.6835 -21.8661 256° West  Level Estimated
07:37AM 65.6536 -22.1463 256° West  Level Estimated
07:38AM 65.6232 -22.4258 255° West  Level Estimated
07:39AM 65.5922 -22.7047 255° West  Level Estimated
07:40AM 65.5608 -22.9829 255° West  Level Estimated
07:41AM 65.5288 -23.2604 255° West  Level Estimated
07:42AM 65.4964 -23.5372 254° West  Level Estimated
07:43AM 65.4634 -23.8133 254° West  Level Estimated
07:44AM 65.4299 -24.0888 254° West  Level Estimated
07:45AM 65.3960 -24.3635 254° West  Level Estimated
07:46AM 65.3615 -24.6375 253° West  Level Estimated
07:47AM 65.3266 -24.9108 253° West  Level Estimated
07:48AM 65.2911 -25.1834 253° West  Level Estimated
07:49AM 65.2552 -25.4552 253° West  Level Estimated
07:50AM 65.2188 -25.7263 252° West  Level Estimated
07:51AM 65.1818 -25.9966 252° West  Level Estimated
07:52AM 65.1444 -26.2662 252° West  Level Estimated
07:53AM 65.1066 -26.5350 252° West  Level Estimated
07:54AM 65.0682 -26.8030 251° West  Level Estimated
07:55AM 65.0294 -27.0703 251° West  Level Estimated
07:56AM 64.9900 -27.3368 251° West  Level Estimated
07:57AM 64.9502 -27.6024 251° West  Level Estimated
07:58AM 64.9100 -27.8673 250° West  Level Estimated
07:59AM 64.8692 -28.1314 250° West  Level Estimated
08:00AM 64.8280 -28.3947 250° West  Level Estimated
08:01AM 64.7864 -28.6572 250° West  Level Estimated
08:02AM 64.7443 -28.9189 249° West  Level Estimated
08:03AM 64.7017 -29.1798 249° West  Level Estimated
08:04AM 64.6587 -29.4398 249° West  Level Estimated
08:05AM 64.6152 -29.6990 249° West  Level Estimated
08:06AM 64.5712 -29.9573 248° West  Level Estimated
08:07AM 64.5268 -30.2149 248° West  Level Estimated
08:08AM 64.4819 -30.4716 248° West  Level Estimated
08:09AM 64.4367 -30.7274 248° West  Level Estimated
08:10AM 64.3909 -30.9824 248° West  Level Estimated
08:11AM 64.3447 -31.2366 247° West  Level Estimated
08:12AM 64.2981 -31.4899 247° West  Level Estimated
08:13AM 64.2511 -31.7423 247° West  Level Estimated
08:14AM 64.2036 -31.9939 247° West  Level Estimated
08:15AM 64.1557 -32.2446 246° West  Level Estimated
08:16AM 64.1073 -32.4944 246° West  Level Estimated
08:17AM 64.0586 -32.7434 246° West  Level Estimated
08:18AM 64.0094 -32.9915 246° West  Level Estimated
08:19AM 63.9598 -33.2387 246° West  Level Estimated
08:20AM 63.9097 -33.4850 245° Southwest  Level Estimated
08:21AM 63.8593 -33.7305 245° Southwest  Level Estimated
08:22AM 63.8084 -33.9751 245° Southwest  Level Estimated
08:23AM 63.7571 -34.2188 245° Southwest  Level Estimated
08:24AM 63.7054 -34.4616 244° Southwest  Level Estimated
08:25AM 63.6533 -34.7035 244° Southwest  Level Estimated
08:26AM 63.6008 -34.9445 244° Southwest  Level Estimated
08:27AM 63.5479 -35.1846 244° Southwest  Level Estimated
08:28AM 63.4946 -35.4239 244° Southwest  Level Estimated
08:29AM 63.4409 -35.6622 243° Southwest  Level Estimated
08:30AM 63.3868 -35.8997 243° Southwest  Level Estimated
08:31AM 63.3323 -36.1362 243° Southwest  Level Estimated
08:32AM 63.2775 -36.3719 243° Southwest  Level Estimated
08:33AM 63.2222 -36.6067 242° Southwest  Level Estimated
08:34AM 63.1665 -36.8405 242° Southwest  Level Estimated
08:35AM 63.1105 -37.0735 242° Southwest  Level Estimated
08:36AM 63.0541 -37.3055 242° Southwest  Level Estimated
08:37AM 62.9973 -37.5367 242° Southwest  Level Estimated
08:38AM 62.9401 -37.7670 241° Southwest  Level Estimated
08:39AM 62.8826 -37.9963 241° Southwest  Level Estimated
08:40AM 62.8247 -38.2248 241° Southwest  Level Estimated
08:41AM 62.7664 -38.4523 241° Southwest  Level Estimated
08:42AM 62.7077 -38.6790 241° Southwest  Level Estimated
08:43AM 62.6487 -38.9048 240° Southwest  Level Estimated
08:44AM 62.5894 -39.1296 240° Southwest  Level Estimated
08:45AM 62.5296 -39.3536 240° Southwest  Level Estimated
08:46AM 62.4695 -39.5766 240° Southwest  Level Estimated
08:47AM 62.4091 -39.7988 240° Southwest  Level Estimated
08:48AM 62.3483 -40.0201 239° Southwest  Level Estimated
08:49AM 62.2872 -40.2404 239° Southwest  Level Estimated
08:50AM 62.2257 -40.4599 239° Southwest  Level Estimated
08:51AM 62.1638 -40.6785 239° Southwest  Level Estimated
08:52AM 62.1016 -40.8961 239° Southwest  Level Estimated
08:53AM 62.0391 -41.1129 238° Southwest  Level Estimated
08:54AM 61.9763 -41.3288 238° Southwest  Level Estimated
08:54AM 64.7250 -50.5960 238° Southwest 497 572 38,000  Level FlightAware
08:54AM 64.6530 -50.7490 222° Southwest 495 570 38,000  Level FlightAware
08:55AM 61.9131 -41.5438 238° Southwest  Level Estimated
08:55AM 64.5790 -50.9040 222° Southwest 493 567 38,000  Level FlightAware
08:56AM 64.5100 -51.0480 222° Southwest 489 563 38,000  Level FlightAware
08:56AM 64.4430 -51.1880 222° Southwest 488 562 38,000  Level FlightAware
08:57AM 64.3700 -51.3380 222° Southwest 487 560 38,000  Level FlightAware
08:58AM 64.3080 -51.4650 222° Southwest 485 558 38,000  Level FlightAware
08:58AM 64.2390 -51.6060 222° Southwest 487 560 38,000  Level FlightAware
08:59AM 64.1640 -51.7560 221° Southwest 488 562 38,000  Level FlightAware
09:00AM 64.1030 -51.8800 222° Southwest 487 560 38,000  Level FlightAware
09:00AM 64.0350 -52.0140 221° Southwest 487 560 38,000  Level FlightAware
09:01AM 63.9680 -52.1460 221° Southwest 488 562 38,000  Level FlightAware
09:02AM 63.9000 -52.2810 221° Southwest 489 563 38,000  Level FlightAware
09:03AM 63.8250 -52.4260 220° Southwest 486 559 38,000  Level FlightAware
09:03AM 63.7540 -52.5650 221° Southwest 486 559 38,000  Level FlightAware
09:04AM 63.6860 -52.6970 221° Southwest 486 559 38,000  Level FlightAware
09:05AM 63.6140 -52.8340 220° Southwest 488 562 38,000  Level FlightAware
09:05AM 63.5380 -52.9770 220° Southwest 491 565 38,000  Level FlightAware
09:06AM 63.4620 -53.1220 220° Southwest 492 566 38,000  Level FlightAware
09:07AM 63.3920 -53.2520 220° Southwest 492 566 38,000  Level FlightAware
09:07AM 63.3170 -53.3930 220° Southwest 492 566 38,000  Level FlightAware
09:08AM 63.2460 -53.5230 220° Southwest 489 563 38,000  Level FlightAware
09:09AM 63.1770 -53.6500 220° Southwest 485 558 38,000  Level FlightAware
09:10AM 63.0980 -53.7930 219° Southwest 485 558 38,000  Level FlightAware
09:10AM 63.0290 -53.9190 220° Southwest 485 558 38,000  Level FlightAware
09:11AM 62.9730 -54.0210 220° Southwest 483 556 38,000  Level FlightAware
09:12AM 62.8580 -54.2250 219° Southwest 482 555 38,000  Level FlightAware
09:13AM 62.8050 -54.3190 219° Southwest 482 555 38,000  Level FlightAware
09:13AM 62.7310 -54.4490 219° Southwest 482 555 38,000  Level FlightAware
09:14AM 62.6610 -54.5740 219° Southwest 482 555 38,000  Level FlightAware
09:15AM 62.6070 -54.6670 218° Southwest 482 555 38,000  Level FlightAware
09:16AM 62.5370 -54.7920 219° Southwest 482 555 38,000  Level FlightAware
09:16AM 62.4650 -54.9180 219° Southwest 482 555 38,000  Level FlightAware
09:17AM 62.4110 -55.0110 219° Southwest 482 555 38,000  Level FlightAware
09:18AM 62.3410 -55.1340 219° Southwest 482 555 38,000  Level FlightAware
09:18AM 62.2880 -55.2270 219° Southwest 482 555 38,000  Level FlightAware
09:19AM 62.2170 -55.3500 219° Southwest 482 555 38,000  Level FlightAware
09:20AM 62.1640 -55.4420 219° Southwest 482 555 38,000  Level FlightAware
09:21AM 62.0930 -55.5640 219° Southwest 482 555 38,000  Level FlightAware
09:21AM 62.0390 -55.6580 219° Southwest 482 555 38,000  Level FlightAware
09:22AM 61.8000 -55.9833 219° Southwest 480 552 38,000  Level Gander Center
09:23AM 61.7000 -56.1667 221° Southwest 480 552 38,000  Level Gander Center
09:24AM 61.6000 -56.3333 218° Southwest 470 541 38,000  Level Gander Center
09:25AM 61.4833 -56.4833 212° Southwest 480 552 38,000  Level Gander Center
09:27AM 61.2833 -56.8167 219° Southwest 480 552 38,000  Level Gander Center
09:28AM 61.1667 -56.9833 215° Southwest 480 552 38,000  Level Gander Center
09:29AM 61.0667 -57.1667 222° Southwest 480 552 38,000  Level Gander Center
09:30AM 60.9667 -57.3167 216° Southwest 480 552 38,000  Level Gander Center
09:31AM 60.8667 -57.4667 216° Southwest 470 541 38,000  Level Gander Center
09:32AM 60.7500 -57.6167 212° Southwest 470 541 38,000  Level Gander Center
09:33AM 60.6333 -57.7833 215° Southwest 470 541 38,000  Level Gander Center
09:34AM 60.5500 -57.9333 222° Southwest 470 541 38,000  Level Gander Center
09:35AM 60.4333 -58.0833 212° Southwest 470 541 38,000  Level Gander Center
09:36AM 60.3333 -58.2667 222° Southwest 470 541 38,000  Level Gander Center
09:37AM 60.2167 -58.4000 210° Southwest 470 541 38,000  Level Gander Center
09:38AM 60.1167 -58.5500 217° Southwest 470 541 38,000  Level Gander Center
09:39AM 60.0167 -58.6833 214° Southwest 470 541 38,000  Level Gander Center
09:40AM 59.9167 -58.8667 223° Southwest 460 529 38,000  Level Gander Center
09:41AM 59.8000 -59.0000 210° Southwest 460 529 38,000  Level Gander Center
09:42AM 59.7000 -59.1333 214° Southwest 460 529 38,000  Level Gander Center
09:43AM 59.5833 -59.2833 213° Southwest 460 529 38,000  Level Gander Center
09:44AM 59.4833 -59.4167 214° Southwest 470 541 38,000  Level Gander Center
09:45AM 59.3667 -59.5833 216° Southwest 460 529 38,000  Level Gander Center
09:46AM 59.2833 -59.7167 219° Southwest 460 529 38,000  Level Gander Center
09:47AM 59.1667 -59.8500 210° Southwest 460 529 38,000  Level Gander Center
09:48AM 59.0667 -59.9833 214° Southwest 460 529 38,000  Level Gander Center
09:49AM 58.9500 -60.1167 211° Southwest 460 529 38,000  Level Gander Center
09:50AM 58.8500 -60.2833 221° Southwest 470 541 38,000  Level Gander Center
09:51AM 58.7333 -60.4167 211° Southwest 470 541 38,000  Level Gander Center
09:52AM 58.6333 -60.5500 215° Southwest 460 529 38,000  Level Gander Center
09:53AM 58.5333 -60.7000 218° Southwest 460 529 38,000  Level Gander Center
09:54AM 58.4333 -60.8667 221° Southwest 450 518 38,000  Level Gander Center
09:55AM 58.3333 -61.0000 215° Southwest 460 529 38,000  Level Gander Center
09:56AM 58.2333 -61.1500 218° Southwest 470 541 38,000  Level Gander Center
09:57AM 58.1167 -61.3167 217° Southwest 470 541 38,000  Level Gander Center
09:58AM 58.0167 -61.4667 218° Southwest 450 518 38,000  Level Gander Center
09:59AM 57.9167 -61.6000 215° Southwest 460 529 38,000  Level Gander Center
10:00AM 57.8167 -61.7500 219° Southwest 460 529 38,000  Level Gander Center
10:01AM 57.7167 -61.9000 219° Southwest 460 529 38,000  Level Gander Center
10:02AM 57.6167 -62.0333 216° Southwest 450 518 38,000  Level Gander Center
10:03AM 57.5167 -62.1833 219° Southwest 460 529 38,000  Level Gander Center
10:04AM 57.4167 -62.3000 212° Southwest 460 529 38,000  Level Gander Center
10:05AM 57.3167 -62.4500 219° Southwest 450 518 38,000  Level Gander Center
10:06AM 57.2167 -62.5833 216° Southwest 450 518 38,000  Level Gander Center
10:07AM 57.1000 -62.7000 209° Southwest 470 541 38,000  Level Gander Center
10:08AM 57.0000 -62.7833 204° Southwest 460 529 38,000  Level Gander Center
10:09AM 56.8833 -62.9000 209° Southwest 470 541 38,000  Level Gander Center
10:10AM 56.7333 -62.9833 197° South 460 529 38,000  Level Gander Center
10:11AM 56.6167 -63.1000 209° Southwest 470 541 38,000  Level Gander Center
10:12AM 56.5000 -63.1833 202° Southwest 450 518 38,000  Level Gander Center
10:13AM 56.4000 -63.2667 205° Southwest 460 529 38,000  Level Gander Center
10:14AM 56.2833 -63.3833 209° Southwest 470 541 38,000  Level Gander Center
10:15AM 56.1667 -63.4667 202° Southwest 480 552 38,000  Level Gander Center
10:16AM 56.0500 -63.5833 209° Southwest 460 529 38,000  Level Gander Center
10:17AM 55.9333 -63.6667 202° Southwest 470 541 38,000  Level Gander Center
10:18AM 55.8167 -63.7500 202° Southwest 460 529 38,000  Level Gander Center
10:19AM 55.7000 -63.8667 209° Southwest 460 529 38,000  Level Gander Center
10:20AM 55.5667 -63.9333 196° South 470 541 38,000  Level Gander Center
10:21AM 55.4500 -64.0500 210° Southwest 460 529 38,000  Level Gander Center
10:22AM 55.3333 -64.1333 202° Southwest 460 529 38,000 120 Level Gander Center
10:23AM 55.2167 -64.2167 202° Southwest 450 518 38,300 360 Climbing Gander Center
10:24AM 55.1000 -64.3167 206° Southwest 460 529 38,800 720 Climbing Gander Center
10:25AM 55.0000 -64.4000 206° Southwest 460 529 39,800 600 Climbing Gander Center
10:26AM 54.8833 -64.4833 202° Southwest 440 506 40,000 60 Climbing Gander Center
10:27AM 54.7500 -64.5500 196° South 450 518 40,000  Level Gander Center
10:28AM 54.6500 -64.6333 206° Southwest 440 506 40,000  Level Gander Center
10:29AM 54.5333 -64.7333 206° Southwest 440 506 40,000  Level Gander Center
10:30AM 54.4333 -64.8167 206° Southwest 440 506 40,000  Level Gander Center
10:31AM 54.3167 -64.9000 203° Southwest 430 495 40,000  Level Gander Center
10:32AM 54.2167 -64.9667 201° Southwest 430 495 40,000  Level Gander Center
10:33AM 54.0833 -65.0500 200° South 420 483 40,000  Level Gander Center
10:34AM 53.9833 -65.1167 201° Southwest 430 495 40,000  Level Gander Center
10:35AM 53.8833 -65.2000 206° Southwest 410 472 40,000  Level Gander Center
10:36AM 53.7667 -65.2667 199° South 420 483 40,000  Level Gander Center
10:37AM 53.6667 -65.3500 206° Southwest 410 472 40,000  Level Gander Center
10:38AM 53.5667 -65.4167 202° Southwest 420 483 40,000  Level Gander Center
10:39AM 53.4333 -65.5167 204° Southwest 430 495 40,000  Level Gander Center
10:40AM 53.3333 -65.6000 206° Southwest 430 495 40,000  Level Gander Center
10:41AM 53.2333 -65.6667 202° Southwest 430 495 40,000  Level Gander Center
10:42AM 53.1167 -65.7333 199° South 430 495 40,000  Level Gander Center
10:43AM 53.0167 -65.8167 207° Southwest 430 495 40,000  Level Gander Center
10:44AM 52.8833 -65.8833 197° South 430 495 40,000  Level Gander Center
10:45AM 52.7833 -65.9500 202° Southwest 440 506 40,000  Level Gander Center
10:46AM 52.6667 -66.0500 207° Southwest 440 506 40,000  Level Gander Center
10:47AM 52.5500 -66.1167 199° South 440 506 40,000  Level Gander Center
10:48AM 52.4333 -66.2000 204° Southwest 440 506 40,000  Level Gander Center
10:49AM 52.3167 -66.2667 199° South 440 506 40,000  Level Gander Center
10:50AM 52.2167 -66.3333 202° Southwest 440 506 40,000  Level Gander Center
10:51AM 52.0833 -66.3833 193° South 440 506 40,000  Level Montreal Center
10:52AM 52.0000 -66.4667 212° Southwest 440 506 40,000  Level Montreal Center
10:53AM 51.8667 -66.5333 197° South 440 506 40,000  Level Montreal Center
10:54AM 51.7500 -66.6000 199° South 440 506 40,000  Level Montreal Center
10:55AM 51.6333 -66.6667 200° South 440 506 40,000  Level Montreal Center
10:56AM 51.5167 -66.7500 204° Southwest 440 506 40,000  Level Montreal Center
10:57AM 51.4000 -66.8333 204° Southwest 440 506 40,000  Level Montreal Center
10:58AM 51.3000 -66.9000 203° Southwest 440 506 40,000  Level Montreal Center
10:59AM 51.1833 -66.9500 195° South 440 506 40,000  Level Montreal Center
11:00AM 51.0500 -67.0333 201° Southwest 440 506 40,000  Level Montreal Center
11:01AM 50.9500 -67.1167 208° Southwest 450 518 40,000  Level Montreal Center
11:02AM 50.8333 -67.1833 200° South 450 518 40,000  Level Montreal Center
11:03AM 50.7167 -67.2667 204° Southwest 450 518 40,000  Level Montreal Center
11:04AM 50.6000 -67.3500 204° Southwest 450 518 40,000  Level Moncton Center
11:05AM 50.4833 -67.4167 200° South 460 529 40,000  Level Moncton Center
11:06AM 50.3500 -67.5000 202° Southwest 460 529 40,000  Level Moncton Center
11:07AM 50.2333 -67.5833 205° Southwest 460 529 40,000  Level Moncton Center
11:08AM 50.1167 -67.6333 195° South 460 529 40,000  Level Moncton Center
11:09AM 50.0000 -67.7000 200° South 460 529 40,000  Level Moncton Center
11:10AM 49.8833 -67.8000 209° Southwest 470 541 40,000  Level Moncton Center
11:11AM 49.7500 -67.8667 198° South 470 541 40,000  Level Moncton Center
11:12AM 49.6333 -67.9333 200° South 470 541 40,000  Level Moncton Center
11:13AM 49.5167 -68.0167 205° Southwest 470 541 40,000  Level Moncton Center
11:14AM 49.3833 -68.0833 198° South 470 541 40,000  Level Moncton Center
11:15AM 49.2667 -68.1167 191° South 470 541 40,000  Level Montreal Center
11:16AM 49.1500 -68.1667 196° South 470 541 40,000  Level Montreal Center
11:17AM 49.0333 -68.2833 213° Southwest 460 529 40,000  Level Montreal Center
11:18AM 48.9333 -68.3833 213° Southwest 450 518 40,000  Level Montreal Center
11:24AM 48.2760 -69.0850 213° Southwest 459 528 40,000  Level FlightAware
11:25AM 48.2190 -69.1410 213° Southwest 459 528 40,000  Level FlightAware
11:26AM 48.1190 -69.2400 213° Southwest 461 531 40,000  Level FlightAware
11:27AM 48.0600 -69.2960 212° Southwest 462 532 40,000  Level FlightAware
11:28AM 48.0060 -69.3500 214° Southwest 462 532 40,000  Level FlightAware
11:29AM 47.8330 -69.5170 213° Southwest 469 540 40,000  Level FlightAware
11:29AM 47.7550 -69.5930 213° Southwest 472 543 40,000  Level FlightAware
11:30AM 47.6720 -69.6710 212° Southwest 474 545 40,000  Level FlightAware
11:31AM 47.5970 -69.7420 213° Southwest 474 545 40,000  Level FlightAware
11:31AM 47.5260 -69.8090 213° Southwest 473 544 40,000  Level FlightAware
11:32AM 47.4500 -69.8800 212° Southwest 474 545 40,000  Level FlightAware
11:33AM 47.3690 -69.9560 212° Southwest 474 545 40,000  Level FlightAware
11:34AM 47.2810 -70.0370 212° Southwest 474 545 40,000  Level FlightAware
11:34AM 47.2110 -70.1030 213° Southwest 476 548 40,000  Level FlightAware
11:35AM 47.1360 -70.1720 212° Southwest 475 547 40,000  Level FlightAware
11:36AM 47.0600 -70.2420 212° Southwest 475 547 40,000  Level FlightAware
11:36AM 47.0040 -70.2940 212° Southwest 475 547 40,000  Level FlightAware
11:37AM 46.9300 -70.3620 212° Southwest 473 544 40,000  Level FlightAware
11:37AM 46.8450 -70.4400 212° Southwest 471 542 40,000  Level FlightAware
11:38AM 46.7760 -70.5030 212° Southwest 471 542 40,000  Level FlightAware
11:39AM 46.7150 -70.5580 212° Southwest 471 542 40,000  Level FlightAware
11:39AM 46.6250 -70.6390 212° Southwest 470 541 40,000  Level FlightAware
11:40AM 46.5540 -70.7030 212° Southwest 471 542 40,000  Level FlightAware
11:41AM 46.4790 -70.7700 212° Southwest 471 542 40,000  Level FlightAware
11:42AM 46.3950 -70.8460 212° Southwest 471 542 40,000  Level FlightAware
11:42AM 46.3100 -70.9220 212° Southwest 471 542 40,000  Level FlightAware
11:43AM 46.2390 -70.9850 212° Southwest 470 541 40,000  Level FlightAware
11:44AM 46.1720 -71.0450 212° Southwest 468 539 40,000  Level FlightAware
11:44AM 46.0810 -71.1250 211° Southwest 467 537 40,000  Level FlightAware
11:45AM 46.0050 -71.1920 211° Southwest 468 539 40,000  Level FlightAware
11:46AM 45.9250 -71.2620 211° Southwest 469 540 40,000  Level FlightAware
11:46AM 45.8470 -71.3300 211° Southwest 469 540 40,000  Level FlightAware
11:47AM 45.7680 -71.3990 211° Southwest 469 540 40,000  Level FlightAware
11:48AM 45.7040 -71.4550 211° Southwest 469 540 40,000  Level FlightAware
11:48AM 45.6290 -71.5190 211° Southwest 470 541 40,000  Level FlightAware
11:49AM 45.5550 -71.5840 212° Southwest 471 542 40,000  Level FlightAware
11:50AM 45.4820 -71.6460 211° Southwest 472 543 40,000  Level FlightAware
11:51AM 45.3970 -71.7190 211° Southwest 472 543 40,000  Level FlightAware
11:51AM 45.3220 -71.7830 211° Southwest 472 543 40,000  Level FlightAware
11:52AM 45.2380 -71.8570 212° Southwest 474 545 40,000  Level FlightAware
11:53AM 45.1550 -71.9330 213° Southwest 474 545 40,000  Level FlightAware
11:53AM 45.0800 -72.0000 212° Southwest 473 544 40,000  Level FlightAware
11:54AM 45.0050 -72.0660 212° Southwest 471 542 40,000  Level FlightAware
11:55AM 44.9320 -72.1310 212° Southwest 472 543 40,000  Level FlightAware
11:55AM 44.8480 -72.2050 212° Southwest 473 544 40,000  Level FlightAware
11:56AM 44.7740 -72.2700 212° Southwest 475 547 40,000  Level FlightAware
11:57AM 44.6830 -72.3500 212° Southwest 476 548 40,000  Level FlightAware
11:58AM 44.6000 -72.4230 212° Southwest 477 549 40,000  Level FlightAware
11:58AM 44.5250 -72.4890 212° Southwest 478 550 40,000  Level FlightAware
11:59AM 44.4370 -72.5640 211° Southwest 480 552 40,000  Level FlightAware
12:00PM 44.3630 -72.6290 212° Southwest 480 552 40,000  Level FlightAware
12:00PM 44.2800 -72.7010 212° Southwest 481 554 40,000 -120 Level FlightAware
12:01PM 44.2030 -72.7660 211° Southwest 482 555 39,900 -540 Descending FlightAware
12:02PM 44.1330 -72.8270 212° Southwest 475 547 39,300 -960 Descending FlightAware
12:02PM 44.0730 -72.8780 211° Southwest 466 536 38,800 -1,020 Descending FlightAware
12:03PM 43.9870 -72.9510 211° Southwest 457 526 38,000 -1,020 Descending FlightAware
12:04PM 43.9130 -73.0140 212° Southwest 469 540 37,400 -1,020 Descending FlightAware
12:05PM 43.8300 -73.0850 212° Southwest 469 540 36,600 -1,320 Descending FlightAware
12:05PM 43.7560 -73.1480 212° Southwest 469 540 35,600 -2,100 Descending FlightAware
12:06PM 43.6820 -73.2100 211° Southwest 474 545 33,800 -2,760 Descending FlightAware
12:07PM 43.5960 -73.2810 211° Southwest 473 544 31,700 -2,640 Descending FlightAware
12:07PM 43.4970 -73.3640 211° Southwest 477 549 29,600 -1,380 Descending FlightAware
12:08PM 43.4310 -73.4190 211° Southwest 477 549 29,600 -2,040 Level FlightAware
12:09PM 43.3360 -73.4980 211° Southwest 451 519 26,600 -3,120 Descending FlightAware
12:10PM 43.2710 -73.5520 211° Southwest 450 518 25,400 -2,220 Descending FlightAware
12:10PM 43.1890 -73.6110 208° Southwest 437 503 23,600 -1,140 Descending FlightAware
12:12PM 43.0690 -73.6750 201° Southwest 446 513 23,200 -1,620 Descending FlightAware
12:12PM 42.9990 -73.6970 193° South 454 522 20,500 -1,680 Descending FlightAware
12:13PM 42.9010 -73.7410 198° South 454 522 20,500  Level FlightAware
12:14PM 42.8400 -73.7680 198° South 454 522 20,500  Level FlightAware
12:14PM 42.7790 -73.7950 198° South 454 522 20,500 -3,960 Level FlightAware
12:15PM 42.6542 -73.8517 198° South 421 484 15,200 -3,180 Descending Boston Center
12:16PM 42.5389 -73.8969 196° South 395 455 15,000 -120 Descending Boston Center
12:17PM 42.4364 -73.9422 198° South 395 455 15,000 -180 Level Boston Center
12:18PM 42.3356 -73.9875 198° South 384 442 14,700 -420 Descending Boston Center
12:19PM 42.2328 -74.0328 198° South 384 442 14,200 -360 Descending Boston Center
12:20PM 42.1342 -74.0778 199° South 384 442 14,000 -300 Descending Boston Center
12:21PM 42.0314 -74.1228 198° South 384 442 13,600 -720 Descending Boston Center
12:22PM 41.9308 -74.1675 198° South 384 442 12,600 -1,020 Descending Boston Center
12:23PM 41.8258 -74.2119 198° South 391 450 11,600 -1,080 Descending Boston Center
12:24PM 41.7314 -74.2539 198° South 384 442 10,500 -840 Descending Boston Center
12:25PM 41.6392 -74.2956 199° South 362 417 10,000 -360 Descending Boston Center
12:26PM 41.5694 -74.3436 207° Southwest 325 374 9,800 -540 Descending Boston Center
12:32PM 41.0920 -74.5146 207° Southwest 290 334 6,500 -600 Descending FlightAware ADS-B
12:32PM 41.0828 -74.5165 189° South 289 333 6,500 -600 Level FlightAware ADS-B
12:32PM 41.0625 -74.5209 189° South 289 333 6,300 -660 Descending FlightAware ADS-B
12:33PM 41.0576 -74.5212 183° South 293 337 6,300 -420 Level FlightAware ADS-B
12:33PM 41.0230 -74.5186 177° South 293 337 6,100 -600 Descending FlightAware ADS-B
12:33PM 41.0137 -74.5179 177° South 290 334 6,000 -540 Descending FlightAware ADS-B
12:34PM 40.9774 -74.5239 187° South 293 337 5,800 -360 Descending FlightAware ADS-B
12:34PM 40.9437 -74.5273 184° South 294 338 5,700 -120 Descending FlightAware ADS-B
12:34PM 40.9081 -74.5241 176° South 292 336 5,700  Level FlightAware ADS-B
12:35PM 40.8654 -74.5199 176° South 292 336 5,700  Level FlightAware ADS-B
12:35PM 40.8445 -74.5178 176° South 293 337 5,700  Level FlightAware ADS-B
12:35PM 40.8414 -74.5175 176° South 293 337 5,700  Level FlightAware ADS-B
12:36PM 40.8073 -74.5142 176° South 290 334 5,700  Level FlightAware ADS-B
12:36PM 40.7872 -74.5124 176° South 292 336 5,700  Level FlightAware ADS-B
12:36PM 40.7514 -74.5115 179° South 290 334 5,700 -120 Level FlightAware ADS-B
12:37PM 40.7104 -74.5167 185° South 287 330 5,600 -360 Descending FlightAware ADS-B
12:38PM 40.6546 -74.5240 186° South 287 330 5,300 -420 Descending FlightAware ADS-B
12:38PM 40.6148 -74.5293 186° South 268 308 5,100 -420 Descending FlightAware ADS-B
12:38PM 40.5956 -74.5318 186° South 268 308 5,000 -420 Descending FlightAware ADS-B
12:39PM 40.5758 -74.5344 186° South 249 287 4,900 -360 Descending FlightAware ADS-B
12:39PM 40.5542 -74.5372 186° South 242 278 4,800 -300 Descending FlightAware ADS-B
12:39PM 40.5309 -74.5392 184° South 242 278 4,700 -360 Descending FlightAware ADS-B
12:40PM 40.5157 -74.5335 164° South 244 281 4,600 -600 Descending FlightAware ADS-B
12:40PM 40.5000 -74.5248 157° South 241 277 4,400 -780 Descending FlightAware ADS-B
12:40PM 40.4817 -74.5147 157° South 239 275 4,200 -540 Descending FlightAware ADS-B
12:40PM 40.4645 -74.5050 157° South 239 275 4,100 -540 Descending FlightAware ADS-B
12:41PM 40.4474 -74.4954 157° South 241 277 3,900 -600 Descending FlightAware ADS-B
12:41PM 40.4302 -74.4856 157° South 239 275 3,800 -360 Descending FlightAware ADS-B
12:41PM 40.4297 -74.4854 163° South 239 275 3,800 -480 Level FlightAware ADS-B
12:41PM 40.4163 -74.4771 155° Southeast 240 276 3,700 -660 Descending FlightAware ADS-B
12:41PM 40.4110 -74.4718 143° Southeast 242 278 3,600 -480 Descending FlightAware ADS-B
12:41PM 40.4061 -74.4642 130° Southeast 239 275 3,600  Level FlightAware ADS-B
12:41PM 40.4057 -74.4634 123° Southeast 242 278 3,600 -1,200 Level FlightAware ADS-B
12:41PM 40.4036 -74.4578 116° Southeast 240 276 3,500 -780 Descending FlightAware ADS-B
12:42PM 40.4022 -74.4523 108° East 238 274 3,500 -300 Level FlightAware ADS-B
12:42PM 40.4037 -74.4283 85° East 234 269 3,400 -600 Descending FlightAware ADS-B
12:42PM 40.4050 -74.4245 66° East 232 267 3,300 -660 Descending FlightAware ADS-B
12:42PM 40.4134 -74.4050 60° Northeast 234 269 3,200 -480 Descending FlightAware ADS-B
12:42PM 40.4189 -74.3928 59° Northeast 229 264 3,100 -480 Descending FlightAware ADS-B
12:43PM 40.4410 -74.3450 59° Northeast 205 236 2,800 -300 Descending FlightAware
12:43PM 40.4540 -74.3180 58° Northeast 189 217 2,800 -180 Level FlightAware
12:44PM 40.4660 -74.3080 32° Northeast 187 215 2,700  Descending FlightAware
12:44PM 40.4785 -74.3001 26° Northeast 189 217 2,800 360 Climbing FlightAware ADS-B